Pagrindinis puslapis
METAR-TAF:

METAR-TAF

Oro uostai :

Beirutas, Libanas

platuma: 33-49N, ilguma: 035-29E, Aukštis: 29 m

Dabartinis oras

Ataskaita buvo paskelbta 32 minutes, ne 04:00 UTC
Vėjas 5 kt iš Pietų/Pietryčių
Temperatūra 27°C
Drėgmė 62%
Slėgis 1007 hPa
Matomumas: 8000 m
Mažai debesys ne aukštis 4500 ft

METAR: OLBA 110400Z 15005KT 8000 FEW045 27/19 Q1007 NOSIG

Laikas: 07:32 (04:32 UTC)

Prognozė

Ataskaita buvo paskelbta 6 valandos ir 32 minutes, ne 22:00 UTC
Prognozė galioja nuo 11 metu 00 UTC su 12 metu 06 UTC
Vėjas 3 kt nuo kintamojo kryptimis
Matomumas: 8000 m
Išsisklaidę debesys ne aukštis 5000 ft
Tapsmas
nuo 11 metu 06 UTC su 11 metu 08 UTC
Vėjas 13 kt iš Vakarų
Laikinai
nuo 11 metu 15 UTC su 11 metu 20 UTC
Su prošvaistėmis ne aukštis 2300 ft
Tapsmas
nuo 11 metu 20 UTC su 11 metu 22 UTC
Vėjas 3 kt nuo kintamojo kryptimis
Matomumas: 8000 m
Mažai debesys ne aukštis 2300 ft

TAF: OLBA 102200Z 1100/1206 VRB03KT 8000 SCT050 BECMG 1106/1108 26013KT TEMPO 1115/1120 5000BR BKN023 BECMG 1120/1122 VRB03KT 8000 FEW023

Orai ataskaitas ir orų prognozės (METAR, TAF).

turimą stotys yra geltonos ir raudonos taškus žemėlapyje.

Perkelti pele per norėdami pamatyti stoties vardą.

Tada spustelėkite, norėdami matyti oro stebėjimo ir prognozės.

Norėdami pakeisti žemėlapį: spustelėkite ant žalios mygtukų su juodo kryžiaus žemyn,; žalią mygtuką su brūkšneliu, jei norite nutolinti; arba žalių rodyklių gretimoms žemėlapius.


METAR-TAF: